sensor_id;sensor_type;location;lat;lon;timestamp;pressure;altitude;pressure_sealevel;temperature;humidity
18858;BME280;9558;50.178;8.370;2023-04-10T00:00:23;98872.50;;;3.79;96.75
18858;BME280;9558;50.178;8.370;2023-04-10T00:03:10;98876.91;;;3.77;96.81
18858;BME280;9558;50.178;8.370;2023-04-10T00:05:57;98876.31;;;3.73;98.53
18858;BME280;9558;50.178;8.370;2023-04-10T00:08:45;98878.06;;;3.73;97.65
18858;BME280;9558;50.178;8.370;2023-04-10T00:11:32;98869.44;;;3.74;97.75
18858;BME280;9558;50.178;8.370;2023-04-10T00:14:18;98866.22;;;3.72;97.73
18858;BME280;9558;50.178;8.370;2023-04-10T00:17:07;98865.38;;;3.71;97.21
18858;BME280;9558;50.178;8.370;2023-04-10T00:19:54;98866.22;;;3.72;97.33
18858;BME280;9558;50.178;8.370;2023-04-10T00:22:41;98862.94;;;3.70;97.25
18858;BME280;9558;50.178;8.370;2023-04-10T00:25:29;98861.41;;;3.67;96.84
18858;BME280;9558;50.178;8.370;2023-04-10T00:28:16;98868.63;;;3.62;96.68
18858;BME280;9558;50.178;8.370;2023-04-10T00:31:03;98869.78;;;3.58;97.27
18858;BME280;9558;50.178;8.370;2023-04-10T00:33:49;98868.75;;;3.60;97.45
18858;BME280;9558;50.178;8.370;2023-04-10T00:36:36;98865.69;;;3.55;97.50
18858;BME280;9558;50.178;8.370;2023-04-10T00:39:23;98876.03;;;3.54;97.16
18858;BME280;9558;50.178;8.370;2023-04-10T00:42:11;98869.16;;;3.54;98.20
18858;BME280;9558;50.178;8.370;2023-04-10T00:44:58;98872.06;;;3.50;97.72
18858;BME280;9558;50.178;8.370;2023-04-10T00:47:45;98868.22;;;3.44;100.00
18858;BME280;9558;50.178;8.370;2023-04-10T00:50:32;98874.19;;;3.44;98.15
18858;BME280;9558;50.178;8.370;2023-04-10T00:53:19;98866.59;;;3.43;97.91
18858;BME280;9558;50.178;8.370;2023-04-10T00:56:07;98869.13;;;3.43;97.93
18858;BME280;9558;50.178;8.370;2023-04-10T00:58:55;98875.91;;;3.44;98.61
18858;BME280;9558;50.178;8.370;2023-04-10T01:01:42;98872.53;;;3.43;98.82
18858;BME280;9558;50.178;8.370;2023-04-10T01:04:29;98872.88;;;3.39;98.45
18858;BME280;9558;50.178;8.370;2023-04-10T01:07:23;98876.34;;;3.38;98.81
18858;BME280;9558;50.178;8.370;2023-04-10T01:10:17;98884.03;;;3.38;98.94
18858;BME280;9558;50.178;8.370;2023-04-10T01:13:11;98877.28;;;3.37;99.08
18858;BME280;9558;50.178;8.370;2023-04-10T01:16:08;98874.59;;;3.38;98.62
18858;BME280;9558;50.178;8.370;2023-04-10T01:19:00;98880.06;;;3.34;98.12
18858;BME280;9558;50.178;8.370;2023-04-10T01:21:50;98876.81;;;3.32;98.88
18858;BME280;9558;50.178;8.370;2023-04-10T01:24:49;98875.16;;;3.31;98.38
18858;BME280;9558;50.178;8.370;2023-04-10T01:27:46;98869.34;;;3.28;98.92
18858;BME280;9558;50.178;8.370;2023-04-10T01:30:42;98856.78;;;3.25;98.80
18858;BME280;9558;50.178;8.370;2023-04-10T01:33:39;98870.59;;;3.23;99.19
18858;BME280;9558;50.178;8.370;2023-04-10T01:36:30;98859.56;;;3.22;98.71
18858;BME280;9558;50.178;8.370;2023-04-10T01:39:20;98852.81;;;3.21;99.59
18858;BME280;9558;50.178;8.370;2023-04-10T01:42:10;98852.00;;;3.21;98.80
18858;BME280;9558;50.178;8.370;2023-04-10T01:44:58;98844.44;;;3.19;98.99
18858;BME280;9558;50.178;8.370;2023-04-10T01:47:47;98840.13;;;3.20;99.14
18858;BME280;9558;50.178;8.370;2023-04-10T01:50:35;98843.03;;;3.15;98.81
18858;BME280;9558;50.178;8.370;2023-04-10T01:53:22;98844.88;;;3.13;98.95
18858;BME280;9558;50.178;8.370;2023-04-10T01:56:11;98834.84;;;3.10;99.43
18858;BME280;9558;50.178;8.370;2023-04-10T01:58:58;98825.56;;;3.09;99.35
18858;BME280;9558;50.178;8.370;2023-04-10T02:01:45;98830.81;;;3.07;99.54
18858;BME280;9558;50.178;8.370;2023-04-10T02:04:33;98819.84;;;3.05;100.00
18858;BME280;9558;50.178;8.370;2023-04-10T02:07:24;98813.09;;;3.04;99.75
18858;BME280;9558;50.178;8.370;2023-04-10T02:10:17;98818.44;;;3.01;99.91
18858;BME280;9558;50.178;8.370;2023-04-10T02:13:08;98815.19;;;2.99;99.69
18858;BME280;9558;50.178;8.370;2023-04-10T02:15:58;98813.66;;;2.97;99.75
18858;BME280;9558;50.178;8.370;2023-04-10T02:18:46;98807.63;;;2.98;99.79
18858;BME280;9558;50.178;8.370;2023-04-10T02:21:36;98804.34;;;2.96;100.00
18858;BME280;9558;50.178;8.370;2023-04-10T02:24:24;98808.78;;;2.93;100.00
18858;BME280;9558;50.178;8.370;2023-04-10T02:27:11;98807.13;;;2.92;100.00
18858;BME280;9558;50.178;8.370;2023-04-10T02:29:58;98803.88;;;2.90;100.00
18858;BME280;9558;50.178;8.370;2023-04-10T02:32:45;98802.25;;;2.89;100.00
18858;BME280;9558;50.178;8.370;2023-04-10T02:35:32;98799.69;;;2.89;100.00
18858;BME280;9558;50.178;8.370;2023-04-10T02:38:20;98801.63;;;2.86;100.00
18858;BME280;9558;50.178;8.370;2023-04-10T02:41:06;98812.19;;;2.81;100.00
18858;BME280;9558;50.178;8.370;2023-04-10T02:43:53;98808.13;;;2.79;100.00
18858;BME280;9558;50.178;8.370;2023-04-10T02:46:40;98805.56;;;2.79;100.00
18858;BME280;9558;50.178;8.370;2023-04-10T02:49:27;98802.94;;;2.80;100.00
18858;BME280;9558;50.178;8.370;2023-04-10T02:52:14;98801.69;;;2.73;100.00
18858;BME280;9558;50.178;8.370;2023-04-10T02:55:03;98806.22;;;2.69;100.00
18858;BME280;9558;50.178;8.370;2023-04-10T02:57:50;98803.28;;;2.63;100.00
18858;BME280;9558;50.178;8.370;2023-04-10T03:00:37;98799.19;;;2.60;100.00
18858;BME280;9558;50.178;8.370;2023-04-10T03:03:24;98794.19;;;2.58;100.00
18858;BME280;9558;50.178;8.370;2023-04-10T03:06:10;98790.72;;;2.59;100.00
18858;BME280;9558;50.178;8.370;2023-04-10T03:08:57;98794.44;;;2.55;100.00
18858;BME280;9558;50.178;8.370;2023-04-10T03:11:45;98779.53;;;2.49;100.00
18858;BME280;9558;50.178;8.370;2023-04-10T03:14:32;98781.38;;;2.47;100.00
18858;BME280;9558;50.178;8.370;2023-04-10T03:17:19;98772.56;;;2.51;100.00
18858;BME280;9558;50.178;8.370;2023-04-10T03:20:07;98778.63;;;2.50;100.00
18858;BME280;9558;50.178;8.370;2023-04-10T03:22:54;98772.78;;;2.48;100.00
18858;BME280;9558;50.178;8.370;2023-04-10T03:25:41;98770.56;;;2.44;100.00
18858;BME280;9558;50.178;8.370;2023-04-10T03:28:29;98761.38;;;2.41;100.00
18858;BME280;9558;50.178;8.370;2023-04-10T03:31:17;98757.69;;;2.45;100.00
18858;BME280;9558;50.178;8.370;2023-04-10T03:34:04;98760.13;;;2.47;100.00
18858;BME280;9558;50.178;8.370;2023-04-10T03:36:50;98751.78;;;2.45;100.00
18858;BME280;9558;50.178;8.370;2023-04-10T03:39:37;98750.94;;;2.44;100.00
18858;BME280;9558;50.178;8.370;2023-04-10T03:42:24;98750.81;;;2.46;100.00
18858;BME280;9558;50.178;8.370;2023-04-10T03:45:13;98744.34;;;2.53;100.00
18858;BME280;9558;50.178;8.370;2023-04-10T03:47:59;98746.81;;;2.54;100.00
18858;BME280;9558;50.178;8.370;2023-04-10T03:50:46;98744.03;;;2.57;100.00
18858;BME280;9558;50.178;8.370;2023-04-10T03:53:33;98740.25;;;2.63;100.00
18858;BME280;9558;50.178;8.370;2023-04-10T03:56:20;98744.09;;;2.69;100.00
18858;BME280;9558;50.178;8.370;2023-04-10T03:59:07;98741.78;;;2.77;100.00
18858;BME280;9558;50.178;8.370;2023-04-10T04:01:55;98760.06;;;2.84;100.00
18858;BME280;9558;50.178;8.370;2023-04-10T04:04:42;98752.03;;;2.88;100.00
18858;BME280;9558;50.178;8.370;2023-04-10T04:07:29;98750.09;;;2.92;100.00
18858;BME280;9558;50.178;8.370;2023-04-10T04:10:16;98748.81;;;2.98;100.00
18858;BME280;9558;50.178;8.370;2023-04-10T04:13:02;98748.38;;;3.04;100.00
18858;BME280;9558;50.178;8.370;2023-04-10T04:15:49;98751.53;;;3.07;100.00
18858;BME280;9558;50.178;8.370;2023-04-10T04:18:37;98756.06;;;3.15;100.00
18858;BME280;9558;50.178;8.370;2023-04-10T04:21:24;98756.44;;;3.22;100.00
18858;BME280;9558;50.178;8.370;2023-04-10T04:24:11;98755.97;;;3.28;100.00
18858;BME280;9558;50.178;8.370;2023-04-10T04:26:57;98757.25;;;3.34;100.00
18858;BME280;9558;50.178;8.370;2023-04-10T04:29:44;98767.97;;;3.39;100.00
18858;BME280;9558;50.178;8.370;2023-04-10T04:32:31;98773.19;;;3.49;100.00
18858;BME280;9558;50.178;8.370;2023-04-10T04:35:19;98768.69;;;3.52;100.00
18858;BME280;9558;50.178;8.370;2023-04-10T04:38:06;98764.16;;;3.56;100.00
18858;BME280;9558;50.178;8.370;2023-04-10T04:40:53;98765.53;;;3.60;100.00
18858;BME280;9558;50.178;8.370;2023-04-10T04:43:40;98769.72;;;3.61;100.00
18858;BME280;9558;50.178;8.370;2023-04-10T04:46:26;98760.09;;;3.65;100.00
18858;BME280;9558;50.178;8.370;2023-04-10T04:49:13;98766.38;;;3.72;100.00
18858;BME280;9558;50.178;8.370;2023-04-10T04:52:01;98762.97;;;3.71;100.00
18858;BME280;9558;50.178;8.370;2023-04-10T04:54:48;98770.53;;;3.73;100.00
18858;BME280;9558;50.178;8.370;2023-04-10T04:57:35;98772.78;;;3.77;100.00
18858;BME280;9558;50.178;8.370;2023-04-10T05:00:21;98774.97;;;3.82;100.00
18858;BME280;9558;50.178;8.370;2023-04-10T05:03:08;98771.50;;;3.83;100.00
18858;BME280;9558;50.178;8.370;2023-04-10T05:05:55;98764.50;;;3.85;100.00
18858;BME280;9558;50.178;8.370;2023-04-10T05:08:43;98769.13;;;3.91;100.00
18858;BME280;9558;50.178;8.370;2023-04-10T05:11:30;98764.59;;;3.95;100.00
18858;BME280;9558;50.178;8.370;2023-04-10T05:14:18;98765.66;;;3.92;100.00
18858;BME280;9558;50.178;8.370;2023-04-10T05:17:05;98772.66;;;4.02;100.00
18858;BME280;9558;50.178;8.370;2023-04-10T05:19:52;98766.91;;;4.09;100.00
18858;BME280;9558;50.178;8.370;2023-04-10T05:22:39;98771.31;;;4.19;100.00
18858;BME280;9558;50.178;8.370;2023-04-10T05:25:27;98768.41;;;4.23;100.00
18858;BME280;9558;50.178;8.370;2023-04-10T05:28:14;98763.03;;;4.26;100.00
18858;BME280;9558;50.178;8.370;2023-04-10T05:31:00;98767.44;;;4.36;100.00
18858;BME280;9558;50.178;8.370;2023-04-10T05:33:47;98769.78;;;4.39;100.00
18858;BME280;9558;50.178;8.370;2023-04-10T05:36:34;98765.09;;;4.44;100.00
18858;BME280;9558;50.178;8.370;2023-04-10T05:39:21;98767.88;;;4.52;100.00
18858;BME280;9558;50.178;8.370;2023-04-10T05:42:09;98763.06;;;4.59;100.00
18858;BME280;9558;50.178;8.370;2023-04-10T05:44:56;98773.38;;;4.68;100.00
18858;BME280;9558;50.178;8.370;2023-04-10T05:47:42;98778.47;;;4.80;99.99
18858;BME280;9558;50.178;8.370;2023-04-10T05:50:29;98767.03;;;4.84;100.00
18858;BME280;9558;50.178;8.370;2023-04-10T05:53:18;98770.06;;;4.89;99.80
18858;BME280;9558;50.178;8.370;2023-04-10T05:56:06;98775.81;;;5.02;98.46
18858;BME280;9558;50.178;8.370;2023-04-10T05:58:54;98762.06;;;5.04;97.94
18858;BME280;9558;50.178;8.370;2023-04-10T06:01:41;98762.13;;;5.13;97.86
18858;BME280;9558;50.178;8.370;2023-04-10T06:04:28;98771.63;;;5.23;96.93
18858;BME280;9558;50.178;8.370;2023-04-10T06:07:14;98772.59;;;5.31;95.87
18858;BME280;9558;50.178;8.370;2023-04-10T06:10:01;98765.53;;;5.45;94.47
18858;BME280;9558;50.178;8.370;2023-04-10T06:12:48;98766.00;;;5.60;95.27
18858;BME280;9558;50.178;8.370;2023-04-10T06:15:36;98770.00;;;5.74;92.19
18858;BME280;9558;50.178;8.370;2023-04-10T06:18:23;98754.88;;;5.90;91.64
18858;BME280;9558;50.178;8.370;2023-04-10T06:21:10;98757.16;;;6.04;90.55
18858;BME280;9558;50.178;8.370;2023-04-10T06:23:56;98757.72;;;6.18;89.17
18858;BME280;9558;50.178;8.370;2023-04-10T06:26:43;98755.81;;;6.30;88.37
18858;BME280;9558;50.178;8.370;2023-04-10T06:29:30;98753.84;;;6.43;88.89
18858;BME280;9558;50.178;8.370;2023-04-10T06:32:18;98762.88;;;6.57;87.78
18858;BME280;9558;50.178;8.370;2023-04-10T06:35:05;98759.91;;;6.71;84.72
18858;BME280;9558;50.178;8.370;2023-04-10T06:37:51;98761.69;;;7.00;83.33
18858;BME280;9558;50.178;8.370;2023-04-10T06:40:39;98757.66;;;7.35;84.55
18858;BME280;9558;50.178;8.370;2023-04-10T06:43:26;98764.59;;;7.72;83.33
18858;BME280;9558;50.178;8.370;2023-04-10T06:46:13;98762.78;;;8.10;80.57
18858;BME280;9558;50.178;8.370;2023-04-10T06:49:02;98769.13;;;8.62;76.88
18858;BME280;9558;50.178;8.370;2023-04-10T06:51:48;98767.38;;;9.25;75.33
18858;BME280;9558;50.178;8.370;2023-04-10T06:54:35;98778.34;;;9.88;71.60
18858;BME280;9558;50.178;8.370;2023-04-10T06:57:22;98768.19;;;10.45;68.99
18858;BME280;9558;50.178;8.370;2023-04-10T07:00:09;98760.13;;;10.98;67.68
18858;BME280;9558;50.178;8.370;2023-04-10T07:02:56;98770.91;;;11.51;61.97
18858;BME280;9558;50.178;8.370;2023-04-10T07:05:44;98774.88;;;12.18;63.68
18858;BME280;9558;50.178;8.370;2023-04-10T07:08:31;98772.09;;;12.74;62.31
18858;BME280;9558;50.178;8.370;2023-04-10T07:11:18;98768.72;;;13.26;59.09
18858;BME280;9558;50.178;8.370;2023-04-10T07:14:05;98765.44;;;13.62;57.83
18858;BME280;9558;50.178;8.370;2023-04-10T07:16:51;98762.34;;;14.04;56.77
18858;BME280;9558;50.178;8.370;2023-04-10T07:19:39;98753.59;;;14.26;52.71
18858;BME280;9558;50.178;8.370;2023-04-10T07:22:27;98762.22;;;14.63;54.51
18858;BME280;9558;50.178;8.370;2023-04-10T07:25:13;98762.53;;;15.03;52.26
18858;BME280;9558;50.178;8.370;2023-04-10T07:28:01;98761.97;;;15.43;52.83
18858;BME280;9558;50.178;8.370;2023-04-10T07:30:47;98763.34;;;16.16;51.53
18858;BME280;9558;50.178;8.370;2023-04-10T07:33:34;98764.91;;;16.92;47.30
18858;BME280;9558;50.178;8.370;2023-04-10T07:36:21;98757.16;;;17.51;45.68
18858;BME280;9558;50.178;8.370;2023-04-10T07:39:09;98760.97;;;18.13;45.87
18858;BME280;9558;50.178;8.370;2023-04-10T07:41:56;98760.31;;;18.57;44.70
18858;BME280;9558;50.178;8.370;2023-04-10T07:44:43;98765.09;;;18.92;42.69
18858;BME280;9558;50.178;8.370;2023-04-10T07:47:29;98764.16;;;19.30;42.04
18858;BME280;9558;50.178;8.370;2023-04-10T07:50:16;98758.88;;;19.37;41.84
18858;BME280;9558;50.178;8.370;2023-04-10T07:53:03;98755.13;;;19.44;40.10
18858;BME280;9558;50.178;8.370;2023-04-10T07:55:53;98757.75;;;19.63;41.39
18858;BME280;9558;50.178;8.370;2023-04-10T07:58:40;98759.97;;;19.84;41.42
18858;BME280;9558;50.178;8.370;2023-04-10T08:01:27;98759.66;;;19.93;38.93
18858;BME280;9558;50.178;8.370;2023-04-10T08:04:14;98759.28;;;20.38;40.07
18858;BME280;9558;50.178;8.370;2023-04-10T08:07:01;98750.09;;;20.29;39.08
18858;BME280;9558;50.178;8.370;2023-04-10T08:09:47;98751.63;;;20.48;39.51
18858;BME280;9558;50.178;8.370;2023-04-10T08:12:36;98746.31;;;20.67;38.93
18858;BME280;9558;50.178;8.370;2023-04-10T08:15:22;98738.81;;;20.82;38.93
18858;BME280;9558;50.178;8.370;2023-04-10T08:18:09;98735.59;;;21.16;37.89
18858;BME280;9558;50.178;8.370;2023-04-10T08:20:56;98736.13;;;21.41;37.72
18858;BME280;9558;50.178;8.370;2023-04-10T08:23:42;98737.56;;;21.73;37.16
18858;BME280;9558;50.178;8.370;2023-04-10T08:26:30;98733.59;;;21.99;37.04
18858;BME280;9558;50.178;8.370;2023-04-10T08:29:19;98733.16;;;22.19;36.29
18858;BME280;9558;50.178;8.370;2023-04-10T08:32:05;98739.63;;;22.29;35.00
18858;BME280;9558;50.178;8.370;2023-04-10T08:34:52;98740.72;;;22.16;35.17
18858;BME280;9558;50.178;8.370;2023-04-10T08:37:39;98742.84;;;22.31;36.48
18858;BME280;9558;50.178;8.370;2023-04-10T08:40:26;98748.56;;;22.56;36.17
18858;BME280;9558;50.178;8.370;2023-04-10T08:43:13;98742.72;;;22.54;34.94
18858;BME280;9558;50.178;8.370;2023-04-10T08:46:01;98742.38;;;22.85;35.73
18858;BME280;9558;50.178;8.370;2023-04-10T08:48:52;98738.00;;;22.90;34.04
18858;BME280;9558;50.178;8.370;2023-04-10T08:51:42;98737.59;;;22.99;33.05
18858;BME280;9558;50.178;8.370;2023-04-10T08:54:33;98717.53;;;23.37;35.23
18858;BME280;9558;50.178;8.370;2023-04-10T08:57:21;98714.81;;;23.32;33.39
18858;BME280;9558;50.178;8.370;2023-04-10T09:00:08;98701.84;;;23.30;33.26
18858;BME280;9558;50.178;8.370;2023-04-10T09:02:56;98710.91;;;22.78;34.37
18858;BME280;9558;50.178;8.370;2023-04-10T09:05:44;98698.78;;;22.14;34.74
18858;BME280;9558;50.178;8.370;2023-04-10T09:08:31;98698.47;;;21.41;35.76
18858;BME280;9558;50.178;8.370;2023-04-10T09:11:18;98693.25;;;20.70;35.97
18858;BME280;9558;50.178;8.370;2023-04-10T09:14:19;98692.06;;;20.00;38.14
18858;BME280;9558;50.178;8.370;2023-04-10T09:17:11;98684.69;;;19.60;39.70
18858;BME280;9558;50.178;8.370;2023-04-10T09:20:00;98680.78;;;19.13;39.67
18858;BME280;9558;50.178;8.370;2023-04-10T09:22:46;98681.13;;;18.73;40.44
18858;BME280;9558;50.178;8.370;2023-04-10T09:25:36;98675.00;;;18.29;41.36
18858;BME280;9558;50.178;8.370;2023-04-10T09:28:23;98677.72;;;17.77;42.65
18858;BME280;9558;50.178;8.370;2023-04-10T09:31:27;98666.16;;;17.53;43.04
18858;BME280;9558;50.178;8.370;2023-04-10T09:34:16;98667.84;;;17.27;43.88
18858;BME280;9558;50.178;8.370;2023-04-10T09:37:04;98660.88;;;17.07;43.45
18858;BME280;9558;50.178;8.370;2023-04-10T09:39:51;98655.47;;;16.75;43.94
18858;BME280;9558;50.178;8.370;2023-04-10T09:42:38;98639.81;;;16.49;44.59
18858;BME280;9558;50.178;8.370;2023-04-10T09:45:24;98656.50;;;16.48;45.36
18858;BME280;9558;50.178;8.370;2023-04-10T09:48:11;98633.16;;;16.26;45.10
18858;BME280;9558;50.178;8.370;2023-04-10T09:50:58;98648.63;;;16.14;45.73
18858;BME280;9558;50.178;8.370;2023-04-10T09:53:48;98639.75;;;15.82;46.17
18858;BME280;9558;50.178;8.370;2023-04-10T09:56:37;98630.03;;;15.69;46.59
18858;BME280;9558;50.178;8.370;2023-04-10T09:59:24;98634.44;;;15.55;47.40
18858;BME280;9558;50.178;8.370;2023-04-10T10:02:12;98633.78;;;15.40;47.24
18858;BME280;9558;50.178;8.370;2023-04-10T10:05:01;98627.50;;;15.27;48.15
18858;BME280;9558;50.178;8.370;2023-04-10T10:07:49;98631.50;;;15.30;48.65
18858;BME280;9558;50.178;8.370;2023-04-10T10:10:39;98614.06;;;15.30;48.08
18858;BME280;9558;50.178;8.370;2023-04-10T10:13:34;98622.91;;;15.36;48.72
18858;BME280;9558;50.178;8.370;2023-04-10T10:16:30;98605.06;;;15.40;49.64
18858;BME280;9558;50.178;8.370;2023-04-10T10:19:22;98587.41;;;15.42;49.51
18858;BME280;9558;50.178;8.370;2023-04-10T10:22:10;98598.50;;;15.50;48.27
18858;BME280;9558;50.178;8.370;2023-04-10T10:24:58;98590.25;;;15.47;48.54
18858;BME280;9558;50.178;8.370;2023-04-10T10:27:48;98588.66;;;15.52;47.95
18858;BME280;9558;50.178;8.370;2023-04-10T10:30:37;98578.19;;;15.46;48.44
18858;BME280;9558;50.178;8.370;2023-04-10T10:33:25;98569.38;;;15.47;48.97
18858;BME280;9558;50.178;8.370;2023-04-10T10:36:13;98575.41;;;15.47;48.95
18858;BME280;9558;50.178;8.370;2023-04-10T10:39:16;98566.59;;;15.55;48.55
18858;BME280;9558;50.178;8.370;2023-04-10T10:42:11;98568.22;;;15.63;47.74
18858;BME280;9558;50.178;8.370;2023-04-10T10:45:08;98565.22;;;15.72;47.97
18858;BME280;9558;50.178;8.370;2023-04-10T10:47:57;98551.78;;;15.76;46.11
18858;BME280;9558;50.178;8.370;2023-04-10T10:50:51;98554.63;;;15.87;46.84
18858;BME280;9558;50.178;8.370;2023-04-10T10:53:40;98544.41;;;15.99;46.75
18858;BME280;9558;50.178;8.370;2023-04-10T10:56:34;98547.03;;;15.99;45.63
18858;BME280;9558;50.178;8.370;2023-04-10T10:59:54;98537.97;;;16.09;46.57
18858;BME280;9558;50.178;8.370;2023-04-10T11:02:43;98529.53;;;16.06;45.04
18858;BME280;9558;50.178;8.370;2023-04-10T11:05:48;98512.88;;;16.01;44.80
18858;BME280;9558;50.178;8.370;2023-04-10T11:08:37;98507.03;;;16.12;45.04
18858;BME280;9558;50.178;8.370;2023-04-10T11:11:27;98503.63;;;16.25;46.08
18858;BME280;9558;50.178;8.370;2023-04-10T11:14:15;98498.78;;;16.35;45.13
18858;BME280;9558;50.178;8.370;2023-04-10T11:17:03;98493.91;;;16.46;44.32
18858;BME280;9558;50.178;8.370;2023-04-10T11:19:58;98503.38;;;16.47;43.02
18858;BME280;9558;50.178;8.370;2023-04-10T11:23:08;98498.13;;;16.53;42.17
18858;BME280;9558;50.178;8.370;2023-04-10T11:25:56;98498.50;;;16.64;43.20
18858;BME280;9558;50.178;8.370;2023-04-10T11:28:42;98496.88;;;16.69;42.67
18858;BME280;9558;50.178;8.370;2023-04-10T11:31:30;98491.44;;;16.71;41.23
18858;BME280;9558;50.178;8.370;2023-04-10T11:34:17;98493.81;;;16.79;40.04
18858;BME280;9558;50.178;8.370;2023-04-10T11:37:05;98483.31;;;16.86;40.72
18858;BME280;9558;50.178;8.370;2023-04-10T11:40:02;98484.34;;;16.91;39.09
18858;BME280;9558;50.178;8.370;2023-04-10T11:42:49;98486.56;;;16.88;38.92
18858;BME280;9558;50.178;8.370;2023-04-10T11:45:36;98473.50;;;16.88;37.56
18858;BME280;9558;50.178;8.370;2023-04-10T11:48:23;98470.47;;;16.91;37.46
18858;BME280;9558;50.178;8.370;2023-04-10T11:51:11;98471.25;;;16.91;36.93
18858;BME280;9558;50.178;8.370;2023-04-10T11:54:06;98466.47;;;16.88;37.88
18858;BME280;9558;50.178;8.370;2023-04-10T11:56:56;98461.63;;;16.92;37.61
18858;BME280;9558;50.178;8.370;2023-04-10T11:59:49;98459.00;;;16.92;37.87
18858;BME280;9558;50.178;8.370;2023-04-10T12:02:49;98465.22;;;16.98;37.11
18858;BME280;9558;50.178;8.370;2023-04-10T12:05:44;98465.16;;;17.04;36.93
18858;BME280;9558;50.178;8.370;2023-04-10T12:08:31;98456.75;;;17.02;36.64
18858;BME280;9558;50.178;8.370;2023-04-10T12:11:22;98446.50;;;17.01;36.82
18858;BME280;9558;50.178;8.370;2023-04-10T12:14:09;98442.19;;;17.13;37.48
18858;BME280;9558;50.178;8.370;2023-04-10T12:16:56;98443.75;;;17.21;37.36
18858;BME280;9558;50.178;8.370;2023-04-10T12:19:43;98441.88;;;17.35;38.09
18858;BME280;9558;50.178;8.370;2023-04-10T12:22:30;98452.13;;;17.36;38.20
18858;BME280;9558;50.178;8.370;2023-04-10T12:25:19;98453.25;;;17.40;35.02
18858;BME280;9558;50.178;8.370;2023-04-10T12:28:08;98439.59;;;17.38;35.12
18858;BME280;9558;50.178;8.370;2023-04-10T12:30:54;98438.44;;;17.34;35.69
18858;BME280;9558;50.178;8.370;2023-04-10T12:33:43;98419.16;;;17.28;35.97
18858;BME280;9558;50.178;8.370;2023-04-10T12:36:30;98417.97;;;17.24;36.06
18858;BME280;9558;50.178;8.370;2023-04-10T12:39:23;98416.75;;;17.27;37.17
18858;BME280;9558;50.178;8.370;2023-04-10T12:42:12;98421.50;;;17.37;37.43
18858;BME280;9558;50.178;8.370;2023-04-10T12:45:00;98429.91;;;17.45;37.54
18858;BME280;9558;50.178;8.370;2023-04-10T12:47:49;98421.34;;;17.57;38.06
18858;BME280;9558;50.178;8.370;2023-04-10T12:50:45;98416.13;;;17.57;37.96
18858;BME280;9558;50.178;8.370;2023-04-10T12:53:41;98411.56;;;17.71;39.14
18858;BME280;9558;50.178;8.370;2023-04-10T12:56:39;98410.75;;;17.70;38.26
18858;BME280;9558;50.178;8.370;2023-04-10T12:59:26;98406.69;;;17.74;38.38
18858;BME280;9558;50.178;8.370;2023-04-10T13:02:14;98400.63;;;17.81;38.43
18858;BME280;9558;50.178;8.370;2023-04-10T13:05:04;98396.97;;;17.82;37.49
18858;BME280;9558;50.178;8.370;2023-04-10T13:07:51;98400.63;;;17.81;37.81
18858;BME280;9558;50.178;8.370;2023-04-10T13:10:37;98394.22;;;17.76;38.29
18858;BME280;9558;50.178;8.370;2023-04-10T13:13:26;98393.03;;;17.72;37.90
18858;BME280;9558;50.178;8.370;2023-04-10T13:16:13;98389.50;;;17.60;37.94
18858;BME280;9558;50.178;8.370;2023-04-10T13:19:01;98385.91;;;17.61;37.96
18858;BME280;9558;50.178;8.370;2023-04-10T13:21:48;98376.06;;;17.56;37.96
18858;BME280;9558;50.178;8.370;2023-04-10T13:24:36;98376.69;;;17.52;38.76
18858;BME280;9558;50.178;8.370;2023-04-10T13:27:23;98371.91;;;17.49;38.38
18858;BME280;9558;50.178;8.370;2023-04-10T13:30:10;98352.56;;;17.50;38.52
18858;BME280;9558;50.178;8.370;2023-04-10T13:32:57;98357.84;;;17.43;38.25
18858;BME280;9558;50.178;8.370;2023-04-10T13:35:45;98361.13;;;17.38;37.41
18858;BME280;9558;50.178;8.370;2023-04-10T13:38:31;98360.13;;;17.39;38.40
18858;BME280;9558;50.178;8.370;2023-04-10T13:41:18;98355.31;;;17.36;37.23
18858;BME280;9558;50.178;8.370;2023-04-10T13:44:05;98351.53;;;17.32;36.96
18858;BME280;9558;50.178;8.370;2023-04-10T13:46:52;98344.47;;;17.33;37.45
18858;BME280;9558;50.178;8.370;2023-04-10T13:49:39;98343.25;;;17.35;37.90
18858;BME280;9558;50.178;8.370;2023-04-10T13:52:27;98349.06;;;17.37;37.33
18858;BME280;9558;50.178;8.370;2023-04-10T13:55:14;98328.94;;;17.38;37.87
18858;BME280;9558;50.178;8.370;2023-04-10T13:58:01;98330.91;;;17.42;37.70
18858;BME280;9558;50.178;8.370;2023-04-10T14:00:47;98318.84;;;17.41;37.00
18858;BME280;9558;50.178;8.370;2023-04-10T14:03:34;98314.03;;;17.38;37.07
18858;BME280;9558;50.178;8.370;2023-04-10T14:06:21;98313.69;;;17.35;37.37
18858;BME280;9558;50.178;8.370;2023-04-10T14:09:09;98302.41;;;17.34;37.13
18858;BME280;9558;50.178;8.370;2023-04-10T14:11:56;98294.69;;;17.21;37.79
18858;BME280;9558;50.178;8.370;2023-04-10T14:14:43;98290.28;;;17.15;37.04
18858;BME280;9558;50.178;8.370;2023-04-10T14:17:31;98288.84;;;17.19;38.00
18858;BME280;9558;50.178;8.370;2023-04-10T14:20:18;98278.56;;;17.24;39.10
18858;BME280;9558;50.178;8.370;2023-04-10T14:23:05;98270.44;;;17.32;38.94
18858;BME280;9558;50.178;8.370;2023-04-10T14:25:53;98255.75;;;17.31;38.11
18858;BME280;9558;50.178;8.370;2023-04-10T14:28:40;98264.50;;;17.43;37.93
18858;BME280;9558;50.178;8.370;2023-04-10T14:31:27;98263.31;;;17.39;37.25
18858;BME280;9558;50.178;8.370;2023-04-10T14:34:13;98248.78;;;17.43;37.57
18858;BME280;9558;50.178;8.370;2023-04-10T14:37:00;98245.13;;;17.44;36.95
18858;BME280;9558;50.178;8.370;2023-04-10T14:39:47;98241.50;;;17.45;36.94
18858;BME280;9558;50.178;8.370;2023-04-10T14:42:35;98237.16;;;17.39;36.66
18858;BME280;9558;50.178;8.370;2023-04-10T14:45:22;98229.53;;;17.38;37.40
18858;BME280;9558;50.178;8.370;2023-04-10T14:48:11;98234.53;;;17.39;36.74
18858;BME280;9558;50.178;8.370;2023-04-10T14:50:57;98236.44;;;17.32;35.42
18858;BME280;9558;50.178;8.370;2023-04-10T14:53:45;98225.25;;;17.25;34.31
18858;BME280;9558;50.178;8.370;2023-04-10T14:56:32;98212.00;;;17.20;35.72
18858;BME280;9558;50.178;8.370;2023-04-10T14:59:20;98206.91;;;17.06;36.28
18858;BME280;9558;50.178;8.370;2023-04-10T15:02:07;98205.16;;;17.00;35.75
18858;BME280;9558;50.178;8.370;2023-04-10T15:04:54;98200.94;;;16.99;36.74